createdAt,value
2023-05-05T00:01:35.576Z,5.50
2023-05-05T00:04:02.870Z,5.50
2023-05-05T00:06:30.249Z,5.80
2023-05-05T00:08:57.251Z,5.50
2023-05-05T00:11:26.134Z,5.40
2023-05-05T00:13:53.064Z,5.50
2023-05-05T00:16:20.419Z,5.80
2023-05-05T00:18:48.114Z,6.00
2023-05-05T00:21:15.750Z,5.50
2023-05-05T00:23:42.761Z,5.90
2023-05-05T00:26:09.713Z,5.40
2023-05-05T00:28:38.365Z,5.80
2023-05-05T00:31:05.744Z,6.40
2023-05-05T00:33:33.294Z,6.40
2023-05-05T00:36:00.445Z,6.60
2023-05-05T00:38:27.461Z,6.60
2023-05-05T00:40:54.474Z,6.40
2023-05-05T00:43:21.507Z,6.50
2023-05-05T00:45:48.515Z,6.50
2023-05-05T00:48:17.123Z,5.90
2023-05-05T00:50:45.230Z,5.00
2023-05-05T00:53:12.288Z,5.10
2023-05-05T00:55:39.247Z,5.50
2023-05-05T00:58:06.452Z,7.00
2023-05-05T01:00:34.310Z,6.30
2023-05-05T01:03:01.666Z,6.70
2023-05-05T01:05:41.905Z,6.30
2023-05-05T01:08:27.765Z,6.50
2023-05-05T01:10:59.009Z,4.80
2023-05-05T01:16:14.300Z,6.00
2023-05-05T01:18:46.336Z,5.60
2023-05-05T01:21:15.485Z,5.60
2023-05-05T01:24:07.974Z,5.60
2023-05-05T01:26:47.261Z,5.50
2023-05-05T01:29:20.460Z,5.70
2023-05-05T01:31:52.025Z,6.10
2023-05-05T01:34:31.404Z,4.90
2023-05-05T01:37:07.647Z,5.20
2023-05-05T01:39:35.080Z,4.30
2023-05-05T01:42:05.404Z,4.90
2023-05-05T01:44:33.930Z,5.90
2023-05-05T01:47:01.067Z,5.30
2023-05-05T01:49:28.215Z,4.40
2023-05-05T01:51:56.055Z,5.40
2023-05-05T01:54:24.425Z,6.10
2023-05-05T01:56:51.578Z,5.90
2023-05-05T01:59:18.626Z,6.70
2023-05-05T02:01:47.313Z,4.80
2023-05-05T02:04:14.576Z,5.50
2023-05-05T02:06:42.044Z,5.30
2023-05-05T02:09:12.873Z,5.30
2023-05-05T02:11:40.088Z,6.10
2023-05-05T02:14:07.147Z,6.20
2023-05-05T02:16:34.297Z,5.80
2023-05-05T02:19:02.588Z,6.20
2023-05-05T02:21:29.796Z,7.10
2023-05-05T02:23:56.819Z,5.20
2023-05-05T02:26:23.794Z,5.10
2023-05-05T02:29:02.444Z,5.80
2023-05-05T02:31:30.248Z,5.50
2023-05-05T02:33:58.304Z,5.70
2023-05-05T02:36:27.937Z,5.30
2023-05-05T02:39:01.292Z,5.80
2023-05-05T02:41:29.793Z,6.10
2023-05-05T02:43:57.427Z,6.20
2023-05-05T02:46:25.515Z,5.20
2023-05-05T02:48:52.617Z,5.50
2023-05-05T02:51:19.556Z,5.30
2023-05-05T02:53:46.631Z,5.40
2023-05-05T02:56:17.300Z,6.10
2023-05-05T02:58:53.337Z,5.70
2023-05-05T03:01:28.124Z,5.80
2023-05-05T03:04:07.547Z,6.30
2023-05-05T03:06:40.814Z,6.70
2023-05-05T03:12:05.603Z,5.40
2023-05-05T03:14:42.691Z,5.40
2023-05-05T03:17:11.941Z,6.00
2023-05-05T03:19:43.553Z,5.00
2023-05-05T03:24:40.046Z,5.40
2023-05-05T03:27:08.946Z,6.50
2023-05-05T03:29:38.001Z,6.70
2023-05-05T03:32:08.631Z,6.30
2023-05-05T03:34:37.528Z,5.90
2023-05-05T03:37:05.143Z,5.40
2023-05-05T03:39:32.907Z,6.40
2023-05-05T03:42:00.798Z,6.40
2023-05-05T03:44:30.709Z,7.00
2023-05-05T03:46:57.892Z,6.80
2023-05-05T03:49:25.623Z,6.70
2023-05-05T03:51:52.557Z,7.60
2023-05-05T03:54:19.739Z,7.10
2023-05-05T03:56:46.948Z,5.50
2023-05-05T03:59:13.950Z,6.30
2023-05-05T04:01:41.556Z,6.60
2023-05-05T04:04:09.623Z,7.40
2023-05-05T04:06:37.065Z,7.20
2023-05-05T04:09:05.801Z,6.80
2023-05-05T04:11:32.850Z,7.00
2023-05-05T04:14:00.740Z,7.50
2023-05-05T04:16:28.371Z,7.40
2023-05-05T04:18:56.125Z,6.40
2023-05-05T04:21:23.226Z,20.60
2023-05-05T04:23:50.534Z,10.50
2023-05-05T04:26:17.576Z,25.00
2023-05-05T04:28:46.070Z,9.70
2023-05-05T04:31:14.061Z,16.60
2023-05-05T04:33:41.948Z,20.60
2023-05-05T04:36:09.089Z,7.70
2023-05-05T04:38:37.827Z,7.90
2023-05-05T04:41:06.526Z,7.10
2023-05-05T04:43:34.397Z,5.70
2023-05-05T04:46:01.855Z,5.70
2023-05-05T04:48:30.994Z,8.70
2023-05-05T04:50:58.053Z,7.60
2023-05-05T04:53:25.314Z,10.20
2023-05-05T04:55:52.357Z,7.50
2023-05-05T04:58:19.356Z,8.20
2023-05-05T05:00:46.603Z,7.30
2023-05-05T05:03:13.878Z,6.80
2023-05-05T05:05:40.867Z,6.50
2023-05-05T05:08:08.412Z,9.90
2023-05-05T05:10:36.000Z,7.00
2023-05-05T05:13:03.739Z,6.40
2023-05-05T05:15:31.261Z,6.60
2023-05-05T05:17:58.240Z,10.30
2023-05-05T05:20:25.250Z,10.00
2023-05-05T05:22:52.294Z,6.60
2023-05-05T05:25:19.684Z,6.70
2023-05-05T05:27:52.302Z,6.60
2023-05-05T05:30:30.368Z,6.00
2023-05-05T05:32:57.931Z,8.10
2023-05-05T05:35:25.796Z,8.00
2023-05-05T05:37:53.127Z,10.10
2023-05-05T05:40:20.617Z,6.80
2023-05-05T05:42:47.580Z,6.40
2023-05-05T05:45:14.772Z,6.20
2023-05-05T05:47:42.362Z,5.60
2023-05-05T05:50:10.236Z,5.90
2023-05-05T05:52:37.954Z,6.10
2023-05-05T05:55:06.780Z,7.50
2023-05-05T05:57:34.558Z,12.20
2023-05-05T06:00:02.453Z,8.90
2023-05-05T06:02:39.679Z,7.70
2023-05-05T06:05:09.337Z,7.10
2023-05-05T06:07:37.816Z,5.60
2023-05-05T06:10:22.661Z,5.90
2023-05-05T06:12:54.017Z,5.30
2023-05-05T06:15:21.023Z,5.60
2023-05-05T06:17:48.156Z,5.00
2023-05-05T06:20:15.362Z,4.60
2023-05-05T06:22:42.654Z,4.80
2023-05-05T06:25:10.093Z,4.80
2023-05-05T06:27:37.951Z,4.20
2023-05-05T06:30:06.905Z,4.70
2023-05-05T06:32:34.667Z,4.30
2023-05-05T06:35:01.624Z,4.10
2023-05-05T06:37:28.510Z,3.70
2023-05-05T06:39:56.859Z,3.10
2023-05-05T06:42:23.792Z,3.40
2023-05-05T06:44:51.938Z,3.30
2023-05-05T06:47:18.912Z,3.10
2023-05-05T06:49:45.864Z,3.60
2023-05-05T06:52:12.769Z,3.00
2023-05-05T06:54:39.890Z,3.20
2023-05-05T06:57:06.825Z,2.80
2023-05-05T06:59:33.957Z,2.90
2023-05-05T07:02:01.027Z,3.70
2023-05-05T07:04:28.232Z,2.70
2023-05-05T07:06:55.412Z,2.80
2023-05-05T07:09:22.738Z,3.30
2023-05-05T07:11:49.773Z,2.60
2023-05-05T07:14:16.978Z,2.90
2023-05-05T07:16:44.162Z,3.40
2023-05-05T07:19:11.213Z,3.00
2023-05-05T07:21:39.743Z,2.80
2023-05-05T07:24:07.158Z,2.70
2023-05-05T07:26:34.460Z,2.80
2023-05-05T07:29:02.671Z,3.50
2023-05-05T07:31:29.815Z,2.90
2023-05-05T07:33:56.801Z,3.00
2023-05-05T07:36:23.729Z,2.80
2023-05-05T07:38:50.666Z,2.40
2023-05-05T07:41:18.549Z,2.60
2023-05-05T07:43:46.152Z,2.80
2023-05-05T07:46:13.958Z,3.20
2023-05-05T07:48:41.828Z,2.70
2023-05-05T07:51:09.363Z,2.30
2023-05-05T07:53:37.010Z,2.30
2023-05-05T07:56:06.413Z,2.20
2023-05-05T07:58:33.583Z,2.30
2023-05-05T08:01:01.463Z,2.40
2023-05-05T08:03:28.711Z,2.60
2023-05-05T08:05:56.568Z,2.10
2023-05-05T08:08:27.084Z,3.30
2023-05-05T08:10:54.565Z,2.40
2023-05-05T08:13:21.682Z,3.20
2023-05-05T08:15:48.609Z,2.60
2023-05-05T08:18:16.039Z,2.10
2023-05-05T08:20:43.069Z,2.60
2023-05-05T08:23:09.980Z,2.30
2023-05-05T08:25:36.972Z,3.60
2023-05-05T08:28:03.993Z,2.70
2023-05-05T08:30:31.115Z,2.40
2023-05-05T08:32:59.168Z,2.60
2023-05-05T08:35:26.179Z,2.60
2023-05-05T08:37:53.130Z,3.00
2023-05-05T08:40:21.137Z,2.80
2023-05-05T08:42:48.682Z,2.80
2023-05-05T08:45:16.143Z,2.60
2023-05-05T08:47:43.946Z,4.60
2023-05-05T08:50:11.482Z,3.50
2023-05-05T08:52:40.708Z,3.30
2023-05-05T08:55:10.647Z,4.00
2023-05-05T08:57:57.365Z,3.20
2023-05-05T09:00:24.597Z,2.70
2023-05-05T09:02:51.897Z,2.80
2023-05-05T09:05:19.009Z,3.00
2023-05-05T09:07:47.507Z,3.00
2023-05-05T09:10:14.557Z,3.60
2023-05-05T09:12:42.838Z,4.10
2023-05-05T09:15:11.690Z,4.10
2023-05-05T09:17:39.256Z,3.70
2023-05-05T09:20:07.468Z,3.90
2023-05-05T09:22:38.410Z,4.60
2023-05-05T09:27:36.773Z,4.90
2023-05-05T09:30:05.732Z,4.60
2023-05-05T09:32:49.009Z,4.80
2023-05-05T09:35:16.689Z,4.70
2023-05-05T09:37:43.703Z,5.20
2023-05-05T09:40:15.757Z,5.30
2023-05-05T09:42:44.766Z,4.70
2023-05-05T09:45:17.803Z,4.50
2023-05-05T09:47:49.091Z,4.70
2023-05-05T09:50:18.983Z,6.60
2023-05-05T09:53:02.748Z,4.90
2023-05-05T09:55:31.378Z,4.60
2023-05-05T09:58:19.552Z,4.90
2023-05-05T10:00:46.893Z,7.30
2023-05-05T10:03:14.019Z,5.30
2023-05-05T10:05:57.833Z,5.60
2023-05-05T10:08:26.704Z,6.40
2023-05-05T10:10:58.505Z,13.40
2023-05-05T10:13:25.523Z,6.60
2023-05-05T10:15:56.602Z,5.30
2023-05-05T10:18:25.794Z,5.20
2023-05-05T10:21:00.732Z,4.90
2023-05-05T10:23:33.219Z,5.20
2023-05-05T10:26:06.226Z,4.50
2023-05-05T10:28:35.710Z,5.10
2023-05-05T10:31:07.647Z,4.50
2023-05-05T10:33:53.368Z,4.30
2023-05-05T10:36:20.420Z,5.10
2023-05-05T10:38:47.296Z,4.20
2023-05-05T10:41:17.305Z,12.80
2023-05-05T10:43:44.397Z,4.70
2023-05-05T10:46:11.483Z,3.90
2023-05-05T10:48:42.817Z,5.00
2023-05-05T10:51:38.479Z,3.90
2023-05-05T10:54:39.660Z,3.30
2023-05-05T10:57:08.203Z,3.30
2023-05-05T10:59:38.648Z,3.40
2023-05-05T11:02:26.600Z,5.10
2023-05-05T11:05:23.465Z,3.30
2023-05-05T11:07:51.308Z,4.20
2023-05-05T11:10:23.362Z,2.90
2023-05-05T11:13:02.098Z,3.10
2023-05-05T11:15:29.994Z,3.30
2023-05-05T11:17:58.359Z,3.50
2023-05-05T11:20:39.798Z,2.90
2023-05-05T11:23:07.038Z,3.30
2023-05-05T11:25:38.173Z,4.40
2023-05-05T11:28:05.911Z,3.20
2023-05-05T11:30:33.151Z,3.40
2023-05-05T11:33:23.198Z,2.90
2023-05-05T11:35:59.360Z,2.70
2023-05-05T11:38:29.964Z,2.50
2023-05-05T11:41:02.242Z,2.70
2023-05-05T11:43:29.613Z,2.60
2023-05-05T11:46:12.902Z,2.90
2023-05-05T11:48:50.196Z,2.50
2023-05-05T11:51:18.078Z,2.40
2023-05-05T11:53:46.570Z,2.60
2023-05-05T11:56:19.269Z,2.90
2023-05-05T11:58:47.167Z,3.00
2023-05-05T12:01:14.096Z,3.20
2023-05-05T12:03:41.380Z,2.60
2023-05-05T12:06:09.551Z,2.60
2023-05-05T12:08:40.573Z,2.50
2023-05-05T12:11:08.665Z,2.30
2023-05-05T12:13:36.208Z,2.40
2023-05-05T12:16:13.855Z,2.40
2023-05-05T12:18:42.086Z,2.30
2023-05-05T12:21:18.776Z,3.10
2023-05-05T12:23:46.121Z,3.00
2023-05-05T12:26:33.350Z,4.10
2023-05-05T12:29:00.888Z,3.60
2023-05-05T12:31:41.544Z,2.60
2023-05-05T12:34:09.450Z,3.50
2023-05-05T12:36:36.801Z,2.70
2023-05-05T12:39:07.238Z,3.80
2023-05-05T12:41:34.787Z,4.20
2023-05-05T12:44:03.107Z,2.70
2023-05-05T12:46:31.301Z,2.30
2023-05-05T12:49:06.097Z,2.10
2023-05-05T12:51:34.292Z,2.40
2023-05-05T12:54:09.998Z,2.50
2023-05-05T12:56:41.516Z,2.90
2023-05-05T12:59:12.574Z,4.30
2023-05-05T13:01:49.196Z,2.30
2023-05-05T13:04:16.586Z,2.30
2023-05-05T13:06:45.163Z,2.10
2023-05-05T13:09:24.728Z,2.90
2023-05-05T13:14:20.614Z,2.90
2023-05-05T13:16:47.501Z,5.40
2023-05-05T13:19:14.491Z,2.70
2023-05-05T13:21:41.909Z,2.10
2023-05-05T13:24:25.310Z,2.00
2023-05-05T13:26:56.655Z,1.90
2023-05-05T13:29:27.265Z,2.40
2023-05-05T13:31:57.129Z,6.20
2023-05-05T13:34:24.116Z,4.10
2023-05-05T13:36:51.012Z,1.80
2023-05-05T13:39:18.154Z,2.20
2023-05-05T13:41:45.543Z,2.40
2023-05-05T13:44:13.983Z,2.00
2023-05-05T13:46:42.626Z,2.00
2023-05-05T13:49:09.626Z,2.30
2023-05-05T13:51:38.376Z,1.80
2023-05-05T13:54:06.640Z,2.00
2023-05-05T13:56:34.329Z,2.30
2023-05-05T13:59:01.761Z,2.00
2023-05-05T14:01:29.686Z,2.10
2023-05-05T14:03:57.624Z,2.10
2023-05-05T14:06:26.038Z,2.50
2023-05-05T14:08:53.471Z,2.10
2023-05-05T14:11:20.869Z,2.10
2023-05-05T14:13:48.221Z,2.10
2023-05-05T14:16:15.403Z,1.90
2023-05-05T14:18:42.710Z,2.10
2023-05-05T14:21:10.071Z,2.00
2023-05-05T14:23:37.248Z,1.70
2023-05-05T14:26:06.923Z,1.90
2023-05-05T14:28:34.351Z,2.20
2023-05-05T14:31:01.923Z,2.70
2023-05-05T14:33:28.811Z,2.90
2023-05-05T14:35:55.912Z,3.00
2023-05-05T14:38:23.086Z,2.40
2023-05-05T14:40:50.122Z,2.30
2023-05-05T14:43:17.087Z,2.00
2023-05-05T14:45:44.456Z,4.90
2023-05-05T14:48:12.186Z,2.30
2023-05-05T14:50:40.766Z,2.10
2023-05-05T14:53:08.120Z,2.60
2023-05-05T14:55:35.440Z,1.70
2023-05-05T14:58:02.310Z,1.80
2023-05-05T15:00:29.509Z,2.20
2023-05-05T15:02:56.801Z,1.90
2023-05-05T15:05:23.822Z,1.70
2023-05-05T15:07:51.022Z,1.80
2023-05-05T15:10:19.717Z,1.70
2023-05-05T15:12:48.938Z,1.90
2023-05-05T15:15:16.199Z,1.80
2023-05-05T15:17:43.470Z,1.80
2023-05-05T15:20:11.270Z,1.80
2023-05-05T15:22:38.684Z,6.00
2023-05-05T15:25:09.635Z,3.90
2023-05-05T15:27:38.127Z,1.80
2023-05-05T15:30:06.140Z,5.00
2023-05-05T15:32:34.163Z,2.60
2023-05-05T15:35:01.199Z,3.50
2023-05-05T15:37:28.998Z,2.90
2023-05-05T15:39:56.999Z,2.60
2023-05-05T15:42:24.512Z,2.00
2023-05-05T15:44:51.640Z,1.80
2023-05-05T15:47:18.825Z,1.90
2023-05-05T15:49:45.894Z,1.70
2023-05-05T15:52:14.035Z,1.80
2023-05-05T15:56:58.348Z,2.70
2023-05-05T15:59:26.150Z,3.70
2023-05-05T16:01:53.202Z,1.40
2023-05-05T16:04:20.363Z,1.90
2023-05-05T16:06:47.468Z,2.30
2023-05-05T16:09:14.374Z,1.80
2023-05-05T16:11:41.529Z,1.80
2023-05-05T16:14:08.495Z,1.60
2023-05-05T16:16:35.502Z,2.40
2023-05-05T16:19:02.521Z,1.70
2023-05-05T16:21:29.717Z,1.50
2023-05-05T16:23:56.970Z,1.50
2023-05-05T16:26:23.961Z,1.80
2023-05-05T16:28:51.447Z,1.90
2023-05-05T16:31:18.361Z,2.40
2023-05-05T16:33:45.846Z,2.50
2023-05-05T16:36:13.269Z,1.50
2023-05-05T16:38:40.454Z,1.90
2023-05-05T16:41:07.835Z,2.40
2023-05-05T16:43:37.305Z,1.80
2023-05-05T16:46:04.410Z,1.80
2023-05-05T16:48:31.656Z,1.50
2023-05-05T16:50:58.884Z,3.20
2023-05-05T16:53:26.097Z,2.40
2023-05-05T16:55:53.613Z,2.50
2023-05-05T16:58:21.291Z,2.60
2023-05-05T17:00:49.312Z,3.60
2023-05-05T17:03:17.147Z,3.90
2023-05-05T17:05:44.664Z,3.60
2023-05-05T17:08:14.231Z,2.90
2023-05-05T17:10:42.030Z,2.20
2023-05-05T17:13:09.848Z,2.70
2023-05-05T17:15:37.615Z,4.10
2023-05-05T17:18:05.916Z,3.50
2023-05-05T17:20:32.950Z,4.20
2023-05-05T17:23:00.148Z,2.80
2023-05-05T17:25:27.109Z,2.40
2023-05-05T17:27:57.423Z,3.20
2023-05-05T17:30:24.439Z,3.30
2023-05-05T17:32:51.589Z,2.90
2023-05-05T17:35:18.596Z,2.80
2023-05-05T17:37:45.682Z,2.10
2023-05-05T17:40:12.794Z,2.70
2023-05-05T17:42:40.633Z,2.30
2023-05-05T17:45:08.640Z,1.90
2023-05-05T17:47:37.545Z,2.00
2023-05-05T17:50:05.318Z,2.20
2023-05-05T17:52:32.576Z,2.00
2023-05-05T17:54:59.574Z,2.20
2023-05-05T17:57:26.762Z,2.30
2023-05-05T17:59:53.888Z,2.50
2023-05-05T18:02:21.088Z,2.80
2023-05-05T18:04:48.523Z,2.40
2023-05-05T18:07:15.432Z,2.10
2023-05-05T18:09:42.729Z,2.30
2023-05-05T18:12:09.925Z,3.10
2023-05-05T18:14:36.910Z,2.40
2023-05-05T18:17:05.096Z,3.00
2023-05-05T18:19:32.589Z,2.30
2023-05-05T18:21:59.637Z,4.40
2023-05-05T18:24:27.640Z,2.30
2023-05-05T18:26:54.731Z,2.40
2023-05-05T18:29:22.083Z,2.20
2023-05-05T18:31:52.103Z,2.00
2023-05-05T18:34:19.460Z,2.10
2023-05-05T18:36:47.113Z,2.10
2023-05-05T18:39:14.632Z,2.30
2023-05-05T18:41:41.607Z,2.40
2023-05-05T18:44:08.900Z,2.40
2023-05-05T18:46:37.700Z,2.40
2023-05-05T18:49:04.848Z,2.60
2023-05-05T18:51:32.371Z,2.60
2023-05-05T18:54:00.822Z,2.70
2023-05-05T18:56:28.037Z,6.30
2023-05-05T18:58:56.290Z,10.80
2023-05-05T19:01:26.801Z,14.40
2023-05-05T19:03:54.212Z,18.70
2023-05-05T19:06:21.555Z,33.50
2023-05-05T19:08:48.759Z,83.60
2023-05-05T19:11:16.096Z,48.80
2023-05-05T19:13:44.065Z,32.70
2023-05-05T19:16:11.361Z,28.40
2023-05-05T19:18:40.536Z,25.90
2023-05-05T19:21:07.579Z,21.20
2023-05-05T19:23:36.156Z,20.40
2023-05-05T19:26:06.031Z,23.80
2023-05-05T19:28:33.346Z,25.60
2023-05-05T19:31:00.605Z,22.60
2023-05-05T19:33:28.738Z,26.20
2023-05-05T19:35:55.737Z,21.60
2023-05-05T19:38:23.178Z,26.40
2023-05-05T19:40:50.508Z,26.80
2023-05-05T19:43:17.546Z,25.70
2023-05-05T19:45:44.471Z,25.00
2023-05-05T19:48:11.733Z,19.80
2023-05-05T19:50:38.672Z,21.90
2023-05-05T19:53:06.006Z,21.50
2023-05-05T19:55:33.305Z,24.50
2023-05-05T19:58:00.394Z,25.40
2023-05-05T20:00:27.395Z,22.00
2023-05-05T20:02:54.542Z,17.40
2023-05-05T20:05:21.613Z,16.60
2023-05-05T20:07:50.227Z,12.30
2023-05-05T20:10:17.935Z,8.70
2023-05-05T20:12:48.839Z,8.50
2023-05-05T20:15:19.705Z,11.70
2023-05-05T20:17:47.209Z,9.20
2023-05-05T20:20:23.979Z,8.90
2023-05-05T20:22:51.221Z,6.80
2023-05-05T20:25:18.258Z,9.30
2023-05-05T20:27:45.987Z,5.50
2023-05-05T20:30:13.508Z,5.20
2023-05-05T20:32:40.967Z,5.30
2023-05-05T20:35:09.225Z,5.30
2023-05-05T20:37:37.032Z,5.80
2023-05-05T20:40:04.219Z,5.00
2023-05-05T20:42:31.880Z,5.10
2023-05-05T20:45:01.028Z,5.40
2023-05-05T20:47:28.696Z,4.60
2023-05-05T20:49:56.253Z,4.40
2023-05-05T20:52:23.413Z,4.10
2023-05-05T20:54:50.522Z,3.80
2023-05-05T20:57:17.560Z,4.20
2023-05-05T20:59:44.609Z,4.90
2023-05-05T21:02:11.666Z,4.60
2023-05-05T21:04:38.662Z,4.20
2023-05-05T21:07:05.794Z,4.00
2023-05-05T21:09:35.399Z,3.90
2023-05-05T21:12:02.592Z,3.80
2023-05-05T21:14:30.293Z,4.20
2023-05-05T21:16:57.325Z,3.80
2023-05-05T21:19:24.395Z,4.20
2023-05-05T21:21:51.412Z,4.70
2023-05-05T21:24:18.562Z,4.10
2023-05-05T21:26:45.672Z,4.80
2023-05-05T21:29:12.708Z,4.50
2023-05-05T21:31:39.839Z,4.50
2023-05-05T21:34:07.029Z,6.00
2023-05-05T21:36:34.508Z,4.30
2023-05-05T21:39:01.815Z,4.00
2023-05-05T21:41:28.963Z,4.10
2023-05-05T21:43:56.273Z,4.50
2023-05-05T21:46:23.462Z,4.30
2023-05-05T21:48:50.737Z,4.90
2023-05-05T21:51:17.920Z,3.80
2023-05-05T21:53:45.075Z,4.80
2023-05-05T21:56:12.224Z,3.80
2023-05-05T21:58:41.281Z,4.80
2023-05-05T22:01:08.500Z,5.40
2023-05-05T22:03:35.976Z,4.80
2023-05-05T22:06:02.972Z,5.60
2023-05-05T22:08:30.729Z,4.90
2023-05-05T22:10:57.878Z,4.20
2023-05-05T22:13:25.745Z,4.90
2023-05-05T22:15:53.072Z,4.30
2023-05-05T22:18:20.166Z,4.70
2023-05-05T22:20:47.197Z,4.00
2023-05-05T22:23:14.253Z,4.10
2023-05-05T22:25:41.495Z,3.60
2023-05-05T22:28:08.739Z,3.90
2023-05-05T22:30:35.806Z,4.30
2023-05-05T22:33:03.001Z,5.30
2023-05-05T22:35:30.427Z,5.60
2023-05-05T22:37:58.037Z,5.30
2023-05-05T22:40:25.204Z,5.00
2023-05-05T22:42:53.128Z,4.90
2023-05-05T22:45:21.356Z,4.40
2023-05-05T22:47:48.559Z,4.40
2023-05-05T22:50:15.686Z,4.90
2023-05-05T22:52:43.006Z,4.60
2023-05-05T22:55:10.618Z,3.60
2023-05-05T22:57:37.909Z,3.40
2023-05-05T23:00:06.173Z,4.30
2023-05-05T23:02:34.183Z,5.40
2023-05-05T23:05:01.615Z,5.40
2023-05-05T23:07:28.887Z,4.50
2023-05-05T23:09:56.223Z,4.80
2023-05-05T23:12:23.271Z,4.90
2023-05-05T23:14:50.526Z,5.20
2023-05-05T23:17:17.774Z,4.70
2023-05-05T23:19:47.598Z,6.50
2023-05-05T23:22:14.813Z,5.10
2023-05-05T23:24:41.910Z,5.10
2023-05-05T23:27:08.908Z,5.20
2023-05-05T23:29:36.187Z,4.60
2023-05-05T23:32:03.175Z,4.60
2023-05-05T23:34:30.611Z,4.70
2023-05-05T23:36:57.842Z,4.50
2023-05-05T23:39:24.911Z,4.00
2023-05-05T23:41:51.935Z,4.20
2023-05-05T23:44:18.969Z,5.50
2023-05-05T23:46:46.753Z,5.00
2023-05-05T23:49:13.792Z,5.20
2023-05-05T23:51:40.730Z,5.90
2023-05-05T23:54:07.820Z,5.30
2023-05-05T23:56:35.114Z,5.70
2023-05-05T23:59:02.178Z,5.70
